Time;durP1;ratioP1;P1;durP2;ratioP2;P2;SDS_P1;SDS_P2;PMS_P1;PMS_P2;Temp;Humidity;BMP_temperature;BMP_pressure;BME280_temperature;BME280_humidity;BME280_pressure;Samples;Min_cycle;Max_cycle;Signal;HPM_P1;HPM_P2
2023/06/08 00:00:41;;;;;;;;;;;16.50;99.90;;;;;;5030278;28;19967;-62
2023/06/08 00:03:08;;;;;;;;;;;16.60;99.90;;;;;;5031985;28;19909;-66
2023/06/08 00:05:43;;;;;;;;;;;16.70;99.90;;;;;;5031316;28;19909;-65
2023/06/08 00:08:11;;;;;;;;;;;16.80;99.90;;;;;;5031649;28;20267;-64
2023/06/08 00:10:37;;;;;;;;;;;16.90;99.90;;;;;;5031444;28;19963;-63
2023/06/08 00:13:04;;;;;;;;;;;17.10;99.90;;;;;;5031504;28;19937;-62
2023/06/08 00:15:32;;;;;;;;;;;17.20;99.90;;;;;;5031555;28;19909;-62
2023/06/08 00:18:00;;;;;;;;;;;17.40;99.90;;;;;;5031930;28;19917;-62
2023/06/08 00:20:26;;;;;;;;;;;17.50;99.90;;;;;;5031409;28;20019;-62
2023/06/08 00:22:53;;;;;;;;;;;17.50;99.90;;;;;;5031920;28;20358;-62
2023/06/08 00:25:20;;;;;;;;;;;17.50;99.90;;;;;;5031971;28;19909;-64
2023/06/08 00:27:46;;;;;;;;;;;17.60;99.90;;;;;;5031443;28;19915;-62
2023/06/08 00:30:16;;;;;;;;;;;17.50;99.90;;;;;;5032003;28;20292;-65
2023/06/08 00:32:43;;;;;;;;;;;17.50;99.90;;;;;;5030940;28;19909;-63
2023/06/08 00:35:09;;;;;;;;;;;17.40;99.90;;;;;;5031001;28;20401;-63
2023/06/08 00:37:36;;;;;;;;;;;17.40;99.90;;;;;;5030923;28;19920;-67
2023/06/08 00:40:04;;;;;;;;;;;17.40;99.90;;;;;;5031159;28;20540;-65
2023/06/08 00:42:33;;;;;;;;;;;17.30;99.90;;;;;;5030311;28;19924;-62
2023/06/08 00:45:00;;;;;;;;;;;17.40;99.90;;;;;;5030593;28;19959;-63
2023/06/08 00:47:26;;;;;;;;;;;17.40;99.90;;;;;;5023380;28;19909;-62
2023/06/08 00:49:53;;;;;;;;;;;17.30;99.90;;;;;;5021359;28;19924;-65
2023/06/08 00:52:22;;;;;;;;;;;17.40;99.90;;;;;;5030052;28;19913;-61
2023/06/08 00:54:49;;;;;;;;;;;17.30;99.90;;;;;;5031215;28;19909;-61
2023/06/08 00:57:18;;;;;;;;;;;17.20;99.90;;;;;;5030133;28;19910;-63
2023/06/08 00:59:49;;;;;;;;;;;17.20;99.90;;;;;;5031184;28;19957;-61
2023/06/08 01:02:18;;;;;;;;;;;17.20;99.90;;;;;;5030671;28;19920;-62
2023/06/08 01:04:45;;;;;;;;;;;17.30;99.90;;;;;;5030952;28;19919;-61
2023/06/08 01:07:19;;;;;;;;;;;17.40;99.90;;;;;;5029698;28;20366;-64
2023/06/08 01:10:04;;;;;;;;;;;17.50;99.90;;;;;;5030110;28;19996;-64
2023/06/08 01:12:40;;;;;;;;;;;17.70;99.90;;;;;;5031044;28;19909;-64
2023/06/08 01:15:07;;;;;;;;;;;17.90;99.90;;;;;;5031126;28;19909;-65
2023/06/08 01:17:40;;;;;;;;;;;18.00;99.90;;;;;;5030669;28;19909;-62
2023/06/08 01:20:21;;;;;;;;;;;18.10;99.90;;;;;;5031612;28;19917;-66
2023/06/08 01:22:56;;;;;;;;;;;18.20;99.90;;;;;;5014976;28;19964;-63
2023/06/08 01:25:29;;;;;;;;;;;18.30;99.90;;;;;;5015049;28;19929;-64
2023/06/08 01:28:22;;;;;;;;;;;18.30;99.90;;;;;;5025636;28;19909;-62
2023/06/08 01:30:49;;;;;;;;;;;18.40;99.90;;;;;;5034291;28;20250;-65
2023/06/08 01:33:17;;;;;;;;;;;18.50;99.90;;;;;;5034416;28;19909;-62
2023/06/08 01:35:55;;;;;;;;;;;18.50;99.90;;;;;;5033760;28;19984;-62
2023/06/08 01:38:27;;;;;;;;;;;18.40;99.90;;;;;;5031763;28;20278;-61
2023/06/08 01:40:57;;;;;;;;;;;18.40;99.90;;;;;;5034855;28;19928;-65
2023/06/08 01:43:24;;;;;;;;;;;18.30;99.90;;;;;;5034403;28;19909;-64
2023/06/08 01:45:52;;;;;;;;;;;18.20;99.90;;;;;;5034144;28;20014;-63
2023/06/08 01:48:20;;;;;;;;;;;18.10;99.90;;;;;;5032878;28;19917;-61
2023/06/08 01:50:48;;;;;;;;;;;18.00;99.90;;;;;;5033945;28;20452;-64
2023/06/08 01:53:16;;;;;;;;;;;18.00;99.90;;;;;;5033754;28;19919;-66
2023/06/08 01:55:43;;;;;;;;;;;17.90;99.90;;;;;;5034339;28;19999;-65
2023/06/08 01:58:09;;;;;;;;;;;17.90;99.90;;;;;;5034028;28;19909;-63
2023/06/08 02:00:36;;;;;;;;;;;17.90;99.90;;;;;;5033891;28;20297;-62
2023/06/08 02:03:02;;;;;;;;;;;17.90;99.90;;;;;;5034560;28;19916;-65
2023/06/08 02:05:29;;;;;;;;;;;17.90;99.90;;;;;;5033689;28;20369;-61
2023/06/08 02:07:56;;;;;;;;;;;17.80;99.90;;;;;;5033875;28;19909;-61
2023/06/08 02:10:23;;;;;;;;;;;17.70;99.90;;;;;;5016184;28;19917;-62
2023/06/08 02:12:50;;;;;;;;;;;17.70;99.90;;;;;;5034320;28;19955;-60
2023/06/08 02:15:16;;;;;;;;;;;17.60;99.90;;;;;;5033438;28;19913;-63
2023/06/08 02:17:43;;;;;;;;;;;17.50;99.90;;;;;;5033893;28;19913;-61
2023/06/08 02:20:10;;;;;;;;;;;17.40;99.90;;;;;;5034054;28;19917;-61
2023/06/08 02:22:37;;;;;;;;;;;17.40;99.90;;;;;;5034102;28;19956;-61
2023/06/08 02:25:08;;;;;;;;;;;17.40;99.90;;;;;;5033165;28;19917;-63
2023/06/08 02:27:36;;;;;;;;;;;17.30;99.90;;;;;;5033394;28;20254;-62
2023/06/08 02:30:07;;;;;;;;;;;17.30;99.90;;;;;;5033714;28;20808;-62
2023/06/08 02:32:33;;;;;;;;;;;17.30;99.90;;;;;;5032215;28;19956;-64
2023/06/08 02:35:03;;;;;;;;;;;17.30;99.90;;;;;;5033183;28;19963;-62
2023/06/08 02:37:30;;;;;;;;;;;17.40;99.90;;;;;;5033024;28;19932;-60
2023/06/08 02:39:57;;;;;;;;;;;17.40;99.90;;;;;;5033457;28;20008;-62
2023/06/08 02:42:24;;;;;;;;;;;17.50;99.90;;;;;;5033991;28;19913;-64
2023/06/08 02:44:51;;;;;;;;;;;17.60;99.90;;;;;;5015410;28;19909;-64
2023/06/08 02:47:18;;;;;;;;;;;17.60;99.90;;;;;;5032887;28;19909;-60
2023/06/08 02:49:45;;;;;;;;;;;17.70;99.90;;;;;;5033153;28;19925;-60
2023/06/08 02:52:11;;;;;;;;;;;17.80;99.90;;;;;;5033437;28;20251;-59
2023/06/08 02:54:38;;;;;;;;;;;17.80;99.90;;;;;;5032966;28;20402;-64
2023/06/08 02:57:05;;;;;;;;;;;17.90;99.90;;;;;;5032682;28;19913;-64
2023/06/08 02:59:32;;;;;;;;;;;17.90;99.90;;;;;;5033162;28;20063;-62
2023/06/08 03:01:59;;;;;;;;;;;18.00;99.90;;;;;;5032993;28;20011;-61
2023/06/08 03:04:27;;;;;;;;;;;18.10;99.90;;;;;;5032794;28;20290;-62
2023/06/08 03:06:54;;;;;;;;;;;18.20;99.90;;;;;;5031845;28;20436;-62
2023/06/08 03:09:24;;;;;;;;;;;18.40;99.90;;;;;;5033442;28;19909;-64
2023/06/08 03:11:52;;;;;;;;;;;18.50;99.90;;;;;;5032761;28;19971;-65
2023/06/08 03:14:18;;;;;;;;;;;18.60;99.90;;;;;;5033080;28;19909;-59
2023/06/08 03:16:48;;;;;;;;;;;18.50;99.90;;;;;;5031635;28;19909;-61
2023/06/08 03:19:15;;;;;;;;;;;18.40;99.90;;;;;;5033354;28;20973;-60
2023/06/08 03:21:41;;;;;;;;;;;18.40;99.90;;;;;;5032971;28;20011;-61
2023/06/08 03:24:08;;;;;;;;;;;18.30;99.90;;;;;;5026190;28;20256;-63
2023/06/08 03:26:35;;;;;;;;;;;18.30;99.90;;;;;;5024602;28;19909;-61
2023/06/08 03:29:02;;;;;;;;;;;18.20;99.90;;;;;;5033276;28;19916;-60
2023/06/08 03:31:29;;;;;;;;;;;18.00;99.90;;;;;;5033045;28;19932;-62
2023/06/08 03:33:56;;;;;;;;;;;18.00;99.90;;;;;;5033261;28;20008;-60
2023/06/08 03:36:43;;;;;;;;;;;17.90;99.90;;;;;;5031768;28;20496;-61
2023/06/08 03:39:09;;;;;;;;;;;17.80;99.90;;;;;;5032619;28;19915;-60
2023/06/08 03:41:36;;;;;;;;;;;17.90;99.90;;;;;;5032938;28;19924;-64
2023/06/08 03:44:02;;;;;;;;;;;17.90;99.90;;;;;;5032685;28;20350;-61
2023/06/08 03:46:29;;;;;;;;;;;17.90;99.90;;;;;;5031850;28;19909;-61
2023/06/08 03:48:56;;;;;;;;;;;17.80;99.90;;;;;;5012113;28;19921;-60
2023/06/08 03:51:22;;;;;;;;;;;17.70;99.90;;;;;;5030462;28;19913;-60
2023/06/08 03:53:52;;;;;;;;;;;17.70;99.90;;;;;;5032196;28;20495;-61
2023/06/08 03:56:19;;;;;;;;;;;17.60;99.90;;;;;;5031794;28;19913;-61
2023/06/08 03:58:46;;;;;;;;;;;17.50;99.90;;;;;;5031225;28;19910;-61
2023/06/08 04:01:13;;;;;;;;;;;17.60;99.90;;;;;;5032264;28;19917;-62
2023/06/08 04:03:40;;;;;;;;;;;17.40;99.90;;;;;;5032154;28;20004;-62
2023/06/08 04:06:11;;;;;;;;;;;17.40;99.90;;;;;;5032034;28;19909;-61
2023/06/08 04:08:40;;;;;;;;;;;17.20;99.90;;;;;;5031660;28;19936;-61
2023/06/08 04:11:08;;;;;;;;;;;17.10;99.90;;;;;;5032332;28;20358;-66
2023/06/08 04:13:38;;;;;;;;;;;17.00;99.90;;;;;;5031818;28;19913;-61
2023/06/08 04:16:09;;;;;;;;;;;16.90;99.90;;;;;;5031881;28;19948;-60
2023/06/08 04:18:37;;;;;;;;;;;16.80;99.90;;;;;;5031371;28;20003;-62
2023/06/08 04:21:05;;;;;;;;;;;16.80;99.90;;;;;;5031577;28;19917;-64
2023/06/08 04:23:33;;;;;;;;;;;16.70;99.90;;;;;;5031990;28;19909;-64
2023/06/08 04:26:03;;;;;;;;;;;16.70;99.90;;;;;;5031462;28;19967;-65
2023/06/08 04:28:30;;;;;;;;;;;16.70;99.90;;;;;;5031265;28;19976;-62
2023/06/08 04:30:59;;;;;;;;;;;16.70;99.90;;;;;;5031821;28;19944;-63
2023/06/08 04:33:26;;;;;;;;;;;16.70;99.90;;;;;;5031207;28;19917;-66
2023/06/08 04:35:53;;;;;;;;;;;16.70;99.90;;;;;;5031113;28;19913;-62
2023/06/08 04:38:20;;;;;;;;;;;16.70;99.90;;;;;;5032078;28;19992;-63
2023/06/08 04:40:53;;;;;;;;;;;16.60;99.90;;;;;;5031916;28;20019;-64
2023/06/08 04:43:25;;;;;;;;;;;16.60;99.90;;;;;;5031992;28;19913;-63
2023/06/08 04:45:57;;;;;;;;;;;16.60;99.90;;;;;;5031254;28;19913;-64
2023/06/08 04:48:27;;;;;;;;;;;16.60;99.90;;;;;;5030965;28;19920;-64
2023/06/08 04:50:54;;;;;;;;;;;16.60;99.90;;;;;;5030173;28;20390;-61
2023/06/08 04:53:21;;;;;;;;;;;16.60;99.90;;;;;;5031058;28;19999;-64
2023/06/08 04:55:48;;;;;;;;;;;16.60;99.90;;;;;;5032868;28;19917;-65
2023/06/08 04:58:15;;;;;;;;;;;16.70;99.90;;;;;;5034099;28;19948;-64
2023/06/08 05:00:42;;;;;;;;;;;16.70;99.90;;;;;;5033732;28;19917;-63
2023/06/08 05:03:08;;;;;;;;;;;16.60;99.90;;;;;;5034199;28;19909;-63
2023/06/08 05:05:36;;;;;;;;;;;16.60;99.90;;;;;;5034264;28;19909;-62
2023/06/08 05:08:03;;;;;;;;;;;16.60;99.90;;;;;;5033107;28;20000;-66
2023/06/08 05:10:29;;;;;;;;;;;16.60;99.90;;;;;;5033749;28;19917;-62
2023/06/08 05:12:56;;;;;;;;;;;16.50;99.90;;;;;;5032533;28;19917;-64
2023/06/08 05:15:23;;;;;;;;;;;16.50;99.90;;;;;;5030767;28;19913;-63
2023/06/08 05:17:51;;;;;;;;;;;16.40;99.90;;;;;;5031208;28;19959;-65
2023/06/08 05:20:19;;;;;;;;;;;16.40;99.90;;;;;;5018595;28;20283;-63
2023/06/08 05:22:45;;;;;;;;;;;16.40;99.90;;;;;;5028112;28;20366;-61
2023/06/08 05:25:12;;;;;;;;;;;16.40;99.90;;;;;;5032352;28;19909;-62
2023/06/08 05:27:39;;;;;;;;;;;16.40;99.90;;;;;;5015431;28;19909;-63
2023/06/08 05:30:06;;;;;;;;;;;16.40;99.90;;;;;;5031765;28;19909;-65
2023/06/08 05:32:33;;;;;;;;;;;16.30;99.90;;;;;;5033718;28;19913;-65
2023/06/08 05:35:00;;;;;;;;;;;16.30;99.90;;;;;;5033879;28;19909;-65
2023/06/08 05:37:27;;;;;;;;;;;16.30;99.90;;;;;;5032896;28;20293;-63
2023/06/08 05:39:53;;;;;;;;;;;16.30;99.90;;;;;;5033679;28;20015;-61
2023/06/08 05:42:20;;;;;;;;;;;16.30;99.90;;;;;;5031854;28;19913;-66
2023/06/08 05:44:47;;;;;;;;;;;16.30;99.90;;;;;;5033278;28;20457;-65
2023/06/08 05:47:14;;;;;;;;;;;16.30;99.90;;;;;;5033180;28;20321;-64
2023/06/08 05:49:40;;;;;;;;;;;16.40;99.90;;;;;;4911702;28;3501716;-60
2023/06/08 05:52:07;;;;;;;;;;;16.30;99.90;;;;;;5033279;28;19939;-62
2023/06/08 05:54:35;;;;;;;;;;;16.30;99.90;;;;;;5034216;28;19928;-60
2023/06/08 05:57:01;;;;;;;;;;;16.30;99.90;;;;;;5034277;28;19991;-63
2023/06/08 05:59:28;;;;;;;;;;;16.30;99.90;;;;;;5034329;28;19909;-61
2023/06/08 06:01:54;;;;;;;;;;;16.30;99.90;;;;;;5033604;28;19961;-62
2023/06/08 06:04:21;;;;;;;;;;;16.30;99.90;;;;;;5033994;28;19909;-63
2023/06/08 06:06:48;;;;;;;;;;;16.30;99.90;;;;;;5033945;28;20332;-60
2023/06/08 06:09:14;;;;;;;;;;;16.20;99.90;;;;;;5033746;28;19909;-62
2023/06/08 06:11:41;;;;;;;;;;;16.30;99.90;;;;;;5033019;28;19956;-63
2023/06/08 06:14:07;;;;;;;;;;;16.20;99.90;;;;;;5032695;28;19909;-61
2023/06/08 06:16:34;;;;;;;;;;;16.20;99.90;;;;;;5033022;28;19913;-61
2023/06/08 06:19:01;;;;;;;;;;;16.20;99.90;;;;;;5033372;28;19916;-62
2023/06/08 06:21:27;;;;;;;;;;;16.20;99.90;;;;;;5033785;28;19917;-61
2023/06/08 06:23:54;;;;;;;;;;;16.20;99.90;;;;;;5033383;28;20280;-61
2023/06/08 06:26:20;;;;;;;;;;;16.20;99.90;;;;;;5032583;28;19913;-64
2023/06/08 06:28:47;;;;;;;;;;;16.20;99.90;;;;;;5044519;28;19921;-63
2023/06/08 06:31:14;;;;;;;;;;;16.20;99.90;;;;;;5032079;28;19913;-64
2023/06/08 06:33:41;;;;;;;;;;;16.20;99.90;;;;;;5032762;28;19917;-62
2023/06/08 06:36:07;;;;;;;;;;;16.20;99.90;;;;;;5032854;28;19963;-64
2023/06/08 06:38:34;;;;;;;;;;;16.20;99.90;;;;;;5032774;28;19909;-60
2023/06/08 06:41:01;;;;;;;;;;;16.20;99.90;;;;;;5032762;28;19917;-61
2023/06/08 06:43:27;;;;;;;;;;;16.20;99.90;;;;;;5032712;28;19913;-66
2023/06/08 06:45:54;;;;;;;;;;;16.30;99.90;;;;;;5032906;28;19909;-64
2023/06/08 06:48:21;;;;;;;;;;;16.30;99.90;;;;;;5031388;28;20040;-61
2023/06/08 06:50:48;;;;;;;;;;;16.30;99.90;;;;;;5021497;28;19920;-64
2023/06/08 06:53:15;;;;;;;;;;;16.30;99.90;;;;;;5027522;28;19917;-62
2023/06/08 06:55:42;;;;;;;;;;;16.30;99.90;;;;;;5031617;28;20362;-63
2023/06/08 06:58:09;;;;;;;;;;;16.30;99.90;;;;;;5031806;28;20476;-62
2023/06/08 07:00:39;;;;;;;;;;;16.20;99.90;;;;;;5030534;28;19913;-62
2023/06/08 07:03:06;;;;;;;;;;;16.30;99.90;;;;;;5030528;28;20298;-61
2023/06/08 07:05:36;;;;;;;;;;;16.20;99.90;;;;;;5031950;28;19963;-61
2023/06/08 07:08:03;;;;;;;;;;;16.20;99.90;;;;;;5031831;28;19909;-62
2023/06/08 07:10:30;;;;;;;;;;;16.20;99.90;;;;;;5031893;28;19957;-66
2023/06/08 07:12:59;;;;;;;;;;;16.20;99.90;;;;;;5031774;28;20421;-63
2023/06/08 07:15:27;;;;;;;;;;;16.20;99.90;;;;;;5031524;28;19917;-63
2023/06/08 07:17:53;;;;;;;;;;;16.20;99.90;;;;;;5031198;28;19910;-67
2023/06/08 07:20:20;;;;;;;;;;;16.20;99.90;;;;;;5031525;28;20378;-62
2023/06/08 07:22:46;;;;;;;;;;;16.10;99.90;;;;;;5031798;28;19920;-61
2023/06/08 07:25:15;;;;;;;;;;;16.10;99.90;;;;;;5031541;28;19929;-64
2023/06/08 07:27:41;;;;;;;;;;;16.10;99.90;;;;;;5031677;28;19980;-62
2023/06/08 07:30:08;;;;;;;;;;;16.10;99.90;;;;;;5031902;28;19916;-61
2023/06/08 07:32:35;;;;;;;;;;;16.00;99.90;;;;;;5032242;28;19940;-61
2023/06/08 07:35:04;;;;;;;;;;;16.00;99.90;;;;;;5031541;28;19909;-64
2023/06/08 07:37:30;;;;;;;;;;;15.90;99.90;;;;;;5028135;28;20373;-64
2023/06/08 07:39:57;;;;;;;;;;;15.90;99.90;;;;;;5030836;28;19917;-60
2023/06/08 07:42:24;;;;;;;;;;;15.80;99.90;;;;;;5031093;28;20402;-63
2023/06/08 07:44:50;;;;;;;;;;;15.80;99.90;;;;;;5031426;28;19913;-61
2023/06/08 07:47:17;;;;;;;;;;;15.80;99.90;;;;;;5023411;28;19909;-63
2023/06/08 07:49:44;;;;;;;;;;;15.80;99.90;;;;;;5030269;28;20341;-63
2023/06/08 07:52:10;;;;;;;;;;;15.70;99.90;;;;;;5031264;28;19914;-61
2023/06/08 07:54:37;;;;;;;;;;;15.70;99.90;;;;;;5031181;28;19909;-64
2023/06/08 07:57:04;;;;;;;;;;;15.60;99.90;;;;;;5031794;28;20374;-66
2023/06/08 07:59:31;;;;;;;;;;;15.60;99.90;;;;;;5032466;28;19909;-66
2023/06/08 08:01:58;;;;;;;;;;;15.60;99.90;;;;;;5031904;28;19923;-65
2023/06/08 08:04:24;;;;;;;;;;;15.50;99.90;;;;;;5032042;28;19913;-63
2023/06/08 08:06:51;;;;;;;;;;;15.50;99.90;;;;;;5031865;28;19909;-66
2023/06/08 08:09:18;;;;;;;;;;;15.50;99.90;;;;;;5031858;28;19910;-63
2023/06/08 08:11:44;;;;;;;;;;;15.60;99.90;;;;;;5031687;28;19909;-66
2023/06/08 08:14:11;;;;;;;;;;;15.50;99.90;;;;;;5031367;28;20282;-63
2023/06/08 08:16:38;;;;;;;;;;;15.40;99.90;;;;;;5031084;28;19909;-66
2023/06/08 08:19:05;;;;;;;;;;;15.40;99.90;;;;;;5031628;28;20410;-64
2023/06/08 08:21:32;;;;;;;;;;;15.40;99.90;;;;;;5031601;28;20008;-63
2023/06/08 08:23:58;;;;;;;;;;;15.40;99.90;;;;;;5031623;28;19909;-64
2023/06/08 08:26:25;;;;;;;;;;;15.40;99.90;;;;;;5031337;28;19959;-65
2023/06/08 08:28:52;;;;;;;;;;;15.30;99.90;;;;;;5031099;28;19916;-61
2023/06/08 08:31:18;;;;;;;;;;;15.30;99.90;;;;;;5031213;28;20362;-63
2023/06/08 08:33:45;;;;;;;;;;;15.20;99.90;;;;;;5031878;28;19920;-61
2023/06/08 08:36:12;;;;;;;;;;;15.20;99.90;;;;;;5031514;28;19909;-61
2023/06/08 08:38:41;;;;;;;;;;;15.10;99.90;;;;;;5031296;28;19920;-62
2023/06/08 08:41:09;;;;;;;;;;;15.10;99.90;;;;;;5031382;28;19917;-62
2023/06/08 08:43:49;;;;;;;;;;;15.00;99.90;;;;;;5031080;28;19909;-61
2023/06/08 08:46:17;;;;;;;;;;;15.00;99.90;;;;;;5026066;28;20003;-61
2023/06/08 08:48:43;;;;;;;;;;;14.90;99.90;;;;;;5011443;28;19917;-65
2023/06/08 08:51:18;;;;;;;;;;;14.90;99.90;;;;;;5022010;28;19933;-62
2023/06/08 08:53:49;;;;;;;;;;;14.80;99.90;;;;;;5030708;28;20286;-60
2023/06/08 08:56:22;;;;;;;;;;;14.70;99.90;;;;;;5025952;28;20274;-64
2023/06/08 08:58:53;;;;;;;;;;;14.60;99.90;;;;;;5011356;28;19964;-63
2023/06/08 09:01:20;;;;;;;;;;;14.60;99.90;;;;;;5023388;28;19924;-61
2023/06/08 09:03:47;;;;;;;;;;;14.50;99.90;;;;;;5031563;28;20266;-60
2023/06/08 09:06:14;;;;;;;;;;;14.50;99.90;;;;;;5031340;28;19916;-63
2023/06/08 09:08:41;;;;;;;;;;;14.40;99.90;;;;;;5029335;28;20421;-65
2023/06/08 09:11:09;;;;;;;;;;;14.30;99.90;;;;;;5031988;28;20340;-61
2023/06/08 09:13:36;;;;;;;;;;;14.30;99.90;;;;;;5031437;28;19986;-61
2023/06/08 09:16:17;;;;;;;;;;;14.30;99.90;;;;;;5031798;28;19913;-60
2023/06/08 09:18:44;;;;;;;;;;;14.10;99.90;;;;;;5031895;28;20387;-61
2023/06/08 09:21:24;;;;;;;;;;;14.10;99.90;;;;;;5031969;28;19924;-62
2023/06/08 09:24:18;;;;;;;;;;;14.10;99.90;;;;;;5031901;28;19917;-61
2023/06/08 09:26:53;;;;;;;;;;;14.00;99.90;;;;;;5029704;28;19998;-61
2023/06/08 09:29:40;;;;;;;;;;;14.00;99.90;;;;;;5031466;28;19955;-63
2023/06/08 09:32:09;;;;;;;;;;;14.00;99.90;;;;;;5030953;28;19913;-64
2023/06/08 09:34:53;;;;;;;;;;;14.00;99.90;;;;;;5030914;28;19909;-63
2023/06/08 09:37:25;;;;;;;;;;;14.00;99.90;;;;;;5031668;28;19963;-64
2023/06/08 09:39:51;;;;;;;;;;;14.00;99.90;;;;;;5031626;28;20395;-64
2023/06/08 09:42:18;;;;;;;;;;;13.90;99.90;;;;;;5034206;28;20328;-65
2023/06/08 09:44:45;;;;;;;;;;;13.90;99.90;;;;;;5035271;28;19920;-66
2023/06/08 09:47:22;;;;;;;;;;;14.00;99.90;;;;;;5031856;28;19910;-65
2023/06/08 09:49:52;;;;;;;;;;;14.00;99.90;;;;;;5033534;28;19921;-66
2023/06/08 09:52:23;;;;;;;;;;;13.90;99.90;;;;;;5035601;28;19909;-66
2023/06/08 09:54:50;;;;;;;;;;;13.90;99.90;;;;;;5034681;28;19964;-63
2023/06/08 09:57:20;;;;;;;;;;;13.90;99.90;;;;;;5020408;28;19937;-63
2023/06/08 09:59:50;;;;;;;;;;;13.80;99.90;;;;;;5013271;28;19916;-62
2023/06/08 10:02:25;;;;;;;;;;;13.70;99.90;;;;;;5015190;28;19920;-61
2023/06/08 10:04:55;;;;;;;;;;;13.70;99.90;;;;;;5015192;28;19917;-61
2023/06/08 10:07:26;;;;;;;;;;;13.70;99.90;;;;;;5014550;28;20016;-59
2023/06/08 10:09:58;;;;;;;;;;;13.60;99.90;;;;;;5014741;28;19992;-61
2023/06/08 10:12:27;;;;;;;;;;;13.60;99.90;;;;;;5016304;28;19917;-61
2023/06/08 10:14:55;;;;;;;;;;;13.50;99.90;;;;;;5034952;28;19948;-61
2023/06/08 10:17:23;;;;;;;;;;;13.50;99.90;;;;;;5031499;28;19917;-62
2023/06/08 10:19:50;;;;;;;;;;;13.50;99.90;;;;;;5031706;28;20000;-61
2023/06/08 10:22:17;;;;;;;;;;;13.40;99.90;;;;;;5034263;28;19920;-65
2023/06/08 10:24:46;;;;;;;;;;;13.40;99.90;;;;;;5033625;28;20004;-64
2023/06/08 10:27:19;;;;;;;;;;;13.40;99.90;;;;;;5033920;28;19909;-60
2023/06/08 10:29:55;;;;;;;;;;;13.30;99.90;;;;;;5032722;28;19909;-61
2023/06/08 10:32:36;;;;;;;;;;;13.30;99.90;;;;;;5014483;28;19917;-61
2023/06/08 10:35:04;;;;;;;;;;;13.30;99.90;;;;;;4996374;28;19916;-63
2023/06/08 10:37:31;;;;;;;;;;;13.20;99.90;;;;;;5014382;28;20017;-60
2023/06/08 10:39:59;;;;;;;;;;;13.20;99.90;;;;;;5033414;28;19983;-61
2023/06/08 10:42:25;;;;;;;;;;;13.10;99.90;;;;;;5033743;28;19944;-61
2023/06/08 10:45:00;;;;;;;;;;;13.00;99.90;;;;;;5033636;28;19931;-60
2023/06/08 10:47:31;;;;;;;;;;;13.10;99.90;;;;;;5032298;28;19955;-60
2023/06/08 10:50:06;;;;;;;;;;;13.10;99.90;;;;;;5025857;28;20003;-61
2023/06/08 10:52:40;;;;;;;;;;;13.00;99.90;;;;;;5032619;28;19952;-61
2023/06/08 10:55:08;;;;;;;;;;;12.90;99.90;;;;;;5034042;28;20000;-61
2023/06/08 10:57:39;;;;;;;;;;;12.90;99.90;;;;;;5032350;28;19913;-61
2023/06/08 11:00:25;;;;;;;;;;;12.90;99.90;;;;;;5013588;28;20278;-59
2023/06/08 11:03:00;;;;;;;;;;;12.80;99.90;;;;;;5013765;28;20020;-61
2023/06/08 11:05:30;;;;;;;;;;;12.80;99.90;;;;;;5013257;28;19913;-61
2023/06/08 11:07:56;;;;;;;;;;;12.70;99.90;;;;;;5013557;28;19944;-60
2023/06/08 11:10:26;;;;;;;;;;;12.70;99.90;;;;;;5013366;28;19957;-61
2023/06/08 11:12:53;;;;;;;;;;;12.70;99.90;;;;;;5013785;28;19991;-60
2023/06/08 11:15:21;;;;;;;;;;;12.70;99.90;;;;;;5013430;28;19910;-61
2023/06/08 11:17:52;;;;;;;;;;;12.60;99.90;;;;;;5012985;28;19910;-61
2023/06/08 11:20:23;;;;;;;;;;;12.60;99.90;;;;;;5027549;28;19971;-61
2023/06/08 11:22:50;;;;;;;;;;;12.70;99.90;;;;;;5032716;28;19916;-60
2023/06/08 11:25:20;;;;;;;;;;;12.60;99.90;;;;;;5031873;28;19913;-63
2023/06/08 11:27:47;;;;;;;;;;;12.60;99.90;;;;;;5032822;28;19956;-62
2023/06/08 11:30:17;;;;;;;;;;;12.60;99.90;;;;;;5033521;28;20309;-62
2023/06/08 11:32:49;;;;;;;;;;;12.60;99.90;;;;;;5033191;28;19932;-61
2023/06/08 11:35:17;;;;;;;;;;;12.60;99.90;;;;;;5033237;28;19956;-62
2023/06/08 11:37:44;;;;;;;;;;;12.50;99.90;;;;;;5032629;28;20004;-66
2023/06/08 11:40:12;;;;;;;;;;;12.60;99.90;;;;;;5032975;28;19913;-63
2023/06/08 11:42:39;;;;;;;;;;;12.50;99.90;;;;;;5032063;28;20373;-61
2023/06/08 11:45:06;;;;;;;;;;;12.50;99.90;;;;;;5015362;28;20284;-62
2023/06/08 11:47:32;;;;;;;;;;;12.40;99.90;;;;;;5032398;28;19990;-62
2023/06/08 11:50:00;;;;;;;;;;;12.50;99.90;;;;;;5033316;28;19968;-62
2023/06/08 11:52:27;;;;;;;;;;;12.40;99.90;;;;;;5032870;28;19909;-63
2023/06/08 11:54:55;;;;;;;;;;;12.30;99.90;;;;;;5034090;28;20004;-63
2023/06/08 11:57:22;;;;;;;;;;;12.30;99.90;;;;;;5032996;28;19916;-61
2023/06/08 11:59:49;;;;;;;;;;;12.30;99.90;;;;;;5032976;28;19949;-64
2023/06/08 12:02:21;;;;;;;;;;;12.20;99.90;;;;;;5032594;28;19913;-63
2023/06/08 12:04:48;;;;;;;;;;;12.20;99.90;;;;;;5032546;28;19913;-62
2023/06/08 12:07:15;;;;;;;;;;;12.10;99.90;;;;;;5031978;28;19915;-63
2023/06/08 12:09:50;;;;;;;;;;;12.20;99.90;;;;;;5032169;28;20011;-61
2023/06/08 12:12:17;;;;;;;;;;;12.10;99.90;;;;;;5032516;28;20385;-62
2023/06/08 12:14:47;;;;;;;;;;;12.10;99.90;;;;;;5031866;28;20310;-62
2023/06/08 12:17:17;;;;;;;;;;;12.10;99.90;;;;;;5031793;28;19913;-63
2023/06/08 12:19:47;;;;;;;;;;;12.10;99.90;;;;;;5031917;28;19909;-63
2023/06/08 12:22:14;;;;;;;;;;;12.10;99.90;;;;;;5032364;28;19971;-62
2023/06/08 12:24:40;;;;;;;;;;;12.10;99.90;;;;;;5031911;28;19948;-63
2023/06/08 12:27:07;;;;;;;;;;;12.00;99.90;;;;;;5031962;28;19913;-62
2023/06/08 12:29:34;;;;;;;;;;;11.90;99.90;;;;;;5032263;28;19909;-62
2023/06/08 12:32:01;;;;;;;;;;;11.90;99.90;;;;;;5032128;28;19996;-62
2023/06/08 12:34:28;;;;;;;;;;;11.80;99.90;;;;;;5031946;28;19909;-61
2023/06/08 12:36:54;;;;;;;;;;;11.80;99.90;;;;;;5032224;28;19916;-62
2023/06/08 12:39:21;;;;;;;;;;;11.90;99.90;;;;;;5032513;28;20004;-62
2023/06/08 12:41:47;;;;;;;;;;;11.80;99.90;;;;;;5032420;28;19917;-63
2023/06/08 12:44:14;;;;;;;;;;;11.80;99.90;;;;;;5032281;28;19909;-62
2023/06/08 12:46:41;;;;;;;;;;;11.80;99.90;;;;;;5031061;28;19938;-64
2023/06/08 12:49:07;;;;;;;;;;;11.90;99.90;;;;;;5014170;28;20436;-63
2023/06/08 12:51:34;;;;;;;;;;;11.90;99.90;;;;;;5032101;28;20399;-63
2023/06/08 12:54:01;;;;;;;;;;;11.90;99.90;;;;;;5032408;28;19917;-62
2023/06/08 12:56:28;;;;;;;;;;;11.90;99.90;;;;;;5032095;28;19913;-61
2023/06/08 12:58:55;;;;;;;;;;;11.90;99.90;;;;;;5032262;28;19909;-63
2023/06/08 13:01:22;;;;;;;;;;;11.90;99.90;;;;;;5032160;28;20023;-63
2023/06/08 13:03:48;;;;;;;;;;;11.80;99.90;;;;;;5032317;28;19909;-64
2023/06/08 13:06:15;;;;;;;;;;;11.70;99.90;;;;;;5030555;28;19917;-63
2023/06/08 13:08:42;;;;;;;;;;;11.70;99.90;;;;;;5032267;28;19913;-62
2023/06/08 13:11:08;;;;;;;;;;;11.70;99.90;;;;;;5031926;28;19909;-63
2023/06/08 13:13:35;;;;;;;;;;;11.70;99.90;;;;;;5032623;28;20263;-63
2023/06/08 13:16:02;;;;;;;;;;;11.60;99.90;;;;;;5032443;28;19964;-63
2023/06/08 13:18:28;;;;;;;;;;;11.60;99.90;;;;;;5036185;28;19963;-62
2023/06/08 13:20:55;;;;;;;;;;;11.60;99.90;;;;;;5050366;28;19921;-62
2023/06/08 13:23:24;;;;;;;;;;;11.60;99.90;;;;;;5056036;28;19909;-63
2023/06/08 13:25:51;;;;;;;;;;;11.50;99.90;;;;;;5055830;28;19909;-62
2023/06/08 13:28:18;;;;;;;;;;;11.50;99.90;;;;;;5055639;28;19916;-62
2023/06/08 13:30:45;;;;;;;;;;;11.40;99.90;;;;;;5055471;28;20597;-62
2023/06/08 13:33:11;;;;;;;;;;;11.40;99.90;;;;;;5037346;28;20652;-62
2023/06/08 13:35:38;;;;;;;;;;;11.40;99.90;;;;;;5053694;28;19962;-63
2023/06/08 13:38:04;;;;;;;;;;;11.30;99.90;;;;;;5055358;28;19931;-64
2023/06/08 13:40:35;;;;;;;;;;;11.40;99.90;;;;;;5055497;28;19920;-63
2023/06/08 13:43:01;;;;;;;;;;;11.50;99.90;;;;;;5037637;28;20316;-62
2023/06/08 13:45:29;;;;;;;;;;;11.40;99.90;;;;;;5045701;28;20002;-63
2023/06/08 13:47:55;;;;;;;;;;;11.50;99.90;;;;;;5035660;28;19913;-64
2023/06/08 13:50:22;;;;;;;;;;;11.50;99.90;;;;;;5016222;28;20351;-62
2023/06/08 13:52:49;;;;;;;;;;;11.40;99.90;;;;;;5015817;28;19917;-62
2023/06/08 13:55:16;;;;;;;;;;;11.30;99.90;;;;;;5015437;28;20278;-63
2023/06/08 13:57:42;;;;;;;;;;;11.30;99.90;;;;;;5015654;28;19917;-62
2023/06/08 14:00:10;;;;;;;;;;;11.30;99.90;;;;;;5014109;28;20263;-62
2023/06/08 14:02:37;;;;;;;;;;;11.20;99.90;;;;;;5015143;28;19955;-61
2023/06/08 14:05:03;;;;;;;;;;;11.20;99.90;;;;;;5015251;28;19910;-62
2023/06/08 14:07:30;;;;;;;;;;;11.20;99.90;;;;;;5015180;28;20019;-64
2023/06/08 14:09:57;;;;;;;;;;;11.20;99.90;;;;;;5014945;28;19985;-63
2023/06/08 14:12:24;;;;;;;;;;;11.20;99.90;;;;;;5015123;28;19910;-63
2023/06/08 14:14:50;;;;;;;;;;;11.20;99.90;;;;;;5015333;28;19964;-63
2023/06/08 14:17:17;;;;;;;;;;;11.10;99.90;;;;;;5014883;28;20314;-62
2023/06/08 14:19:45;;;;;;;;;;;11.10;99.90;;;;;;5015125;28;20016;-64
2023/06/08 14:22:13;;;;;;;;;;;11.00;99.90;;;;;;5015169;28;19917;-65